createdAt,value
2023-03-11T00:00:48.721Z,1.40
2023-03-11T00:03:24.373Z,1.40
2023-03-11T00:05:54.252Z,1.50
2023-03-11T00:08:24.337Z,1.70
2023-03-11T00:10:55.098Z,1.20
2023-03-11T00:13:23.464Z,1.67
2023-03-11T00:15:55.880Z,1.70
2023-03-11T00:18:27.277Z,1.63
2023-03-11T00:20:56.671Z,1.60
2023-03-11T00:23:25.906Z,1.57
2023-03-11T00:25:54.364Z,2.03
2023-03-11T00:28:25.308Z,2.00
2023-03-11T00:30:53.516Z,1.60
2023-03-11T00:33:21.713Z,1.57
2023-03-11T00:35:51.747Z,1.73
2023-03-11T00:38:21.403Z,1.60
2023-03-11T00:40:50.522Z,1.47
2023-03-11T00:43:19.106Z,1.67
2023-03-11T00:45:47.366Z,1.37
2023-03-11T00:48:16.547Z,1.77
2023-03-11T00:50:44.864Z,1.53
2023-03-11T00:53:14.489Z,1.77
2023-03-11T00:55:42.586Z,1.87
2023-03-11T00:58:14.066Z,2.27
2023-03-11T01:00:46.799Z,1.70
2023-03-11T01:03:14.943Z,1.50
2023-03-11T01:05:43.253Z,1.93
2023-03-11T01:08:11.419Z,1.77
2023-03-11T01:10:41.015Z,1.80
2023-03-11T01:13:09.198Z,2.00
2023-03-11T01:15:38.731Z,1.77
2023-03-11T01:18:07.565Z,2.20
2023-03-11T01:20:35.830Z,1.90
2023-03-11T01:23:04.125Z,1.80
2023-03-11T01:25:32.338Z,1.90
2023-03-11T01:28:02.042Z,2.20
2023-03-11T01:30:31.419Z,1.77
2023-03-11T01:33:00.170Z,1.53
2023-03-11T01:35:30.314Z,2.10
2023-03-11T01:37:59.478Z,2.00
2023-03-11T01:40:31.328Z,2.10
2023-03-11T01:43:05.079Z,1.73
2023-03-11T01:46:03.976Z,1.50
2023-03-11T01:48:33.051Z,1.40
2023-03-11T01:51:01.805Z,1.53
2023-03-11T01:53:30.454Z,2.17
2023-03-11T01:55:59.077Z,2.63
2023-03-11T01:58:33.613Z,1.90
2023-03-11T02:01:03.376Z,1.60
2023-03-11T02:03:34.071Z,2.03
2023-03-11T02:06:05.282Z,1.93
2023-03-11T02:08:34.869Z,1.80
2023-03-11T02:11:07.246Z,1.50
2023-03-11T02:13:38.549Z,2.40
2023-03-11T02:16:07.787Z,1.97
2023-03-11T02:18:36.739Z,2.10
2023-03-11T02:21:15.046Z,1.87
2023-03-11T02:23:51.662Z,1.60
2023-03-11T02:26:25.911Z,2.30
2023-03-11T02:28:57.351Z,1.80
2023-03-11T02:31:26.946Z,2.60
2023-03-11T02:33:56.058Z,2.40
2023-03-11T02:36:36.973Z,2.00
2023-03-11T02:39:07.140Z,1.47
2023-03-11T02:41:39.276Z,1.57
2023-03-11T02:44:10.710Z,1.90
2023-03-11T02:46:41.542Z,2.00
2023-03-11T02:49:11.948Z,2.70
2023-03-11T02:51:40.062Z,2.00
2023-03-11T02:54:08.546Z,2.20
2023-03-11T02:56:37.895Z,1.87
2023-03-11T02:59:06.157Z,1.87
2023-03-11T03:01:35.682Z,1.73
2023-03-11T03:04:04.183Z,1.80
2023-03-11T03:06:34.231Z,1.87
2023-03-11T03:09:02.340Z,1.77
2023-03-11T03:11:30.812Z,1.77
2023-03-11T03:13:59.181Z,1.50
2023-03-11T03:16:27.524Z,1.83
2023-03-11T03:18:57.857Z,2.10
2023-03-11T03:21:27.330Z,2.27
2023-03-11T03:23:56.701Z,1.40
2023-03-11T03:26:24.917Z,1.90
2023-03-11T03:28:53.152Z,1.60
2023-03-11T03:31:21.507Z,1.70
2023-03-11T03:33:49.719Z,1.43
2023-03-11T03:36:19.497Z,1.50
2023-03-11T03:38:56.392Z,2.00
2023-03-11T03:41:26.888Z,2.07
2023-03-11T03:43:55.771Z,1.80
2023-03-11T03:46:24.484Z,1.90
2023-03-11T03:48:55.115Z,2.00
2023-03-11T03:51:24.714Z,2.10
2023-03-11T03:54:19.085Z,2.00
2023-03-11T03:56:47.291Z,1.70
2023-03-11T03:59:15.558Z,1.53
2023-03-11T04:01:49.776Z,1.30
2023-03-11T04:04:19.244Z,2.00
2023-03-11T04:06:49.004Z,1.53
2023-03-11T04:09:19.708Z,1.73
2023-03-11T04:11:48.226Z,1.50
2023-03-11T04:14:18.083Z,1.80
2023-03-11T04:16:54.068Z,1.83
2023-03-11T04:19:22.306Z,1.83
2023-03-11T04:21:52.425Z,1.90
2023-03-11T04:24:22.492Z,2.13
2023-03-11T04:26:50.915Z,2.00
2023-03-11T04:29:19.830Z,1.83
2023-03-11T04:31:51.623Z,1.57
2023-03-11T04:34:19.973Z,1.60
2023-03-11T04:36:48.162Z,1.47
2023-03-11T04:39:19.665Z,2.00
2023-03-11T04:41:49.046Z,1.77
2023-03-11T04:44:21.340Z,3.20
2023-03-11T04:46:50.938Z,2.90
2023-03-11T04:49:19.118Z,2.73
2023-03-11T04:51:47.325Z,2.83
2023-03-11T04:54:19.353Z,1.80
2023-03-11T04:56:47.648Z,1.73
2023-03-11T04:59:16.089Z,2.00
2023-03-11T05:01:46.313Z,1.80
2023-03-11T05:04:14.664Z,2.90
2023-03-11T05:06:43.439Z,3.60
2023-03-11T05:09:12.611Z,4.43
2023-03-11T05:11:43.815Z,4.60
2023-03-11T05:14:13.846Z,5.30
2023-03-11T05:16:42.072Z,5.93
2023-03-11T05:19:25.040Z,5.63
2023-03-11T05:21:53.535Z,6.20
2023-03-11T05:24:21.718Z,6.50
2023-03-11T05:26:51.368Z,3.60
2023-03-11T05:29:19.531Z,4.10
2023-03-11T05:31:48.552Z,4.07
2023-03-11T05:34:17.517Z,3.23
2023-03-11T05:36:47.057Z,2.63
2023-03-11T05:39:15.671Z,2.40
2023-03-11T05:41:44.114Z,2.30
2023-03-11T05:44:13.699Z,2.00
2023-03-11T05:46:42.176Z,1.80
2023-03-11T05:49:10.442Z,1.80
2023-03-11T05:51:38.980Z,2.07
2023-03-11T05:54:11.738Z,2.00
2023-03-11T05:56:42.282Z,1.70
2023-03-11T05:59:10.982Z,5.33
2023-03-11T06:01:43.114Z,4.60
2023-03-11T06:04:12.687Z,2.70
2023-03-11T06:06:42.162Z,2.40
2023-03-11T06:09:13.969Z,1.80
2023-03-11T06:11:43.909Z,2.67
2023-03-11T06:14:13.953Z,2.50
2023-03-11T06:16:45.323Z,2.90
2023-03-11T06:19:14.477Z,2.80
2023-03-11T06:21:46.970Z,2.70
2023-03-11T06:24:15.609Z,2.70
2023-03-11T06:26:44.980Z,2.53
2023-03-11T06:29:16.604Z,2.10
2023-03-11T06:31:47.649Z,2.10
2023-03-11T06:34:15.904Z,2.27
2023-03-11T06:36:44.385Z,2.63
2023-03-11T06:39:15.354Z,2.83
2023-03-11T06:41:45.125Z,2.70
2023-03-11T06:44:14.747Z,2.00
2023-03-11T06:46:44.181Z,2.33
2023-03-11T06:49:14.644Z,2.37
2023-03-11T06:51:43.779Z,2.20
2023-03-11T06:54:12.918Z,2.23
2023-03-11T06:56:41.029Z,2.70
2023-03-11T06:59:10.694Z,2.00
2023-03-11T07:01:38.836Z,1.80
2023-03-11T07:04:08.785Z,2.23
2023-03-11T07:06:42.449Z,2.23
2023-03-11T07:09:18.605Z,2.23
2023-03-11T07:11:47.973Z,2.33
2023-03-11T07:14:23.291Z,2.43
2023-03-11T07:16:55.445Z,3.20
2023-03-11T07:19:32.656Z,2.30
2023-03-11T07:22:02.548Z,2.90
2023-03-11T07:24:30.790Z,3.80
2023-03-11T07:26:58.896Z,2.30
2023-03-11T07:29:27.091Z,2.30
2023-03-11T07:31:55.218Z,2.40
2023-03-11T07:34:23.313Z,2.80
2023-03-11T07:36:51.604Z,10.87
2023-03-11T07:39:21.228Z,12.10
2023-03-11T07:41:49.302Z,9.47
2023-03-11T07:44:18.609Z,3.53
2023-03-11T07:46:46.946Z,2.83
2023-03-11T07:49:15.197Z,2.27
2023-03-11T07:51:43.927Z,2.37
2023-03-11T07:54:13.191Z,2.70
2023-03-11T07:56:42.978Z,2.47
2023-03-11T07:59:11.543Z,3.27
2023-03-11T08:01:41.399Z,2.70
2023-03-11T08:04:14.359Z,2.70
2023-03-11T08:06:44.696Z,2.30
2023-03-11T08:09:13.397Z,3.20
2023-03-11T08:11:43.678Z,2.70
2023-03-11T08:14:11.941Z,3.23
2023-03-11T08:16:41.501Z,2.33
2023-03-11T08:19:12.593Z,2.83
2023-03-11T08:21:41.144Z,2.43
2023-03-11T08:24:11.764Z,2.10
2023-03-11T08:26:40.763Z,1.90
2023-03-11T08:29:10.865Z,2.37
2023-03-11T08:31:39.345Z,2.53
2023-03-11T08:34:09.443Z,2.80
2023-03-11T08:36:38.202Z,2.47
2023-03-11T08:39:06.976Z,2.13
2023-03-11T08:41:35.556Z,2.70
2023-03-11T08:44:04.018Z,3.27
2023-03-11T08:46:35.548Z,2.17
2023-03-11T08:49:05.008Z,2.07
2023-03-11T08:51:35.378Z,2.13
2023-03-11T08:54:04.685Z,3.13
2023-03-11T08:56:33.093Z,2.10
2023-03-11T08:59:01.522Z,2.90
2023-03-11T09:01:30.434Z,1.90
2023-03-11T09:04:00.302Z,2.77
2023-03-11T09:06:30.425Z,2.07
2023-03-11T09:08:59.264Z,2.10
2023-03-11T09:11:27.630Z,2.23
2023-03-11T09:13:56.225Z,2.30
2023-03-11T09:16:25.128Z,2.17
2023-03-11T09:18:53.382Z,3.63
2023-03-11T09:21:23.841Z,2.13
2023-03-11T09:23:52.074Z,2.43
2023-03-11T09:26:20.274Z,2.10
2023-03-11T09:28:49.404Z,2.67
2023-03-11T09:31:18.403Z,2.40
2023-03-11T09:33:47.671Z,2.27
2023-03-11T09:36:18.396Z,2.10
2023-03-11T09:38:48.204Z,1.93
2023-03-11T09:41:31.371Z,2.30
2023-03-11T09:44:19.334Z,1.93
2023-03-11T09:47:07.091Z,2.20
2023-03-11T09:49:46.992Z,1.73
2023-03-11T09:52:17.107Z,2.07
2023-03-11T09:54:49.939Z,1.80
2023-03-11T09:57:22.136Z,2.00
2023-03-11T09:59:51.001Z,2.57
2023-03-11T10:02:22.326Z,1.90
2023-03-11T10:04:57.145Z,2.33
2023-03-11T10:07:29.969Z,2.30
2023-03-11T10:10:01.625Z,1.80
2023-03-11T10:12:45.765Z,2.30
2023-03-11T10:15:24.861Z,2.10
2023-03-11T10:18:12.370Z,2.10
2023-03-11T10:20:46.887Z,2.13
2023-03-11T10:23:25.675Z,1.43
2023-03-11T10:26:04.084Z,1.77
2023-03-11T10:28:37.574Z,1.73
2023-03-11T10:31:18.949Z,1.40
2023-03-11T10:33:51.283Z,1.90
2023-03-11T10:36:24.301Z,1.30
2023-03-11T10:38:54.330Z,1.53
2023-03-11T10:41:29.910Z,1.60
2023-03-11T10:44:03.894Z,1.70
2023-03-11T10:46:31.989Z,1.27
2023-03-11T10:49:00.149Z,2.50
2023-03-11T10:51:33.592Z,1.00
2023-03-11T10:54:04.354Z,1.83
2023-03-11T10:56:36.054Z,1.60
2023-03-11T10:59:05.778Z,1.10
2023-03-11T11:01:34.270Z,1.50
2023-03-11T11:04:04.147Z,1.00
2023-03-11T11:06:34.523Z,1.90
2023-03-11T11:09:07.689Z,1.80
2023-03-11T11:11:39.476Z,1.30
2023-03-11T11:14:09.409Z,1.57
2023-03-11T11:16:38.191Z,1.30
2023-03-11T11:19:10.897Z,1.53
2023-03-11T11:21:41.287Z,2.00
2023-03-11T11:24:25.631Z,1.33
2023-03-11T11:27:17.205Z,1.97
2023-03-11T11:29:45.755Z,1.77
2023-03-11T11:32:21.574Z,1.67
2023-03-11T11:35:00.157Z,2.07
2023-03-11T11:37:31.981Z,1.43
2023-03-11T11:40:11.250Z,2.07
2023-03-11T11:42:43.761Z,1.83
2023-03-11T11:45:16.846Z,1.40
2023-03-11T11:47:49.289Z,1.53
2023-03-11T11:50:25.402Z,1.80
2023-03-11T11:52:58.478Z,1.90
2023-03-11T11:55:29.410Z,1.40
2023-03-11T11:57:59.059Z,1.30
2023-03-11T12:00:33.319Z,1.80
2023-03-11T12:03:16.010Z,2.67
2023-03-11T12:05:50.280Z,1.80
2023-03-11T12:08:24.758Z,1.77
2023-03-11T12:10:58.510Z,1.57
2023-03-11T12:14:02.149Z,1.70
2023-03-11T12:16:41.465Z,2.30
2023-03-11T12:19:18.944Z,1.30
2023-03-11T12:22:04.213Z,1.97
2023-03-11T12:24:51.501Z,1.40
2023-03-11T12:27:23.452Z,1.80
2023-03-11T12:29:56.573Z,1.80
2023-03-11T12:32:29.555Z,1.50
2023-03-11T12:35:02.933Z,2.13
2023-03-11T12:37:31.326Z,1.90
2023-03-11T12:39:59.462Z,1.60
2023-03-11T12:42:41.072Z,2.10
2023-03-11T12:45:38.843Z,1.83
2023-03-11T12:48:37.019Z,1.83
2023-03-11T12:51:06.101Z,1.50
2023-03-11T12:53:45.130Z,1.63
2023-03-11T12:56:26.400Z,1.90
2023-03-11T12:59:11.592Z,1.93
2023-03-11T13:01:54.805Z,2.20
2023-03-11T13:04:34.463Z,1.20
2023-03-11T13:07:41.761Z,2.20
2023-03-11T13:10:17.161Z,1.73
2023-03-11T13:12:46.955Z,1.73
2023-03-11T13:15:31.993Z,2.07
2023-03-11T13:18:02.410Z,1.77
2023-03-11T13:20:45.892Z,1.63
2023-03-11T13:23:27.243Z,2.73
2023-03-11T13:26:23.338Z,1.60
2023-03-11T13:29:14.613Z,1.50
2023-03-11T13:31:53.725Z,1.33
2023-03-11T13:34:29.149Z,1.47
2023-03-11T13:37:13.124Z,1.73
2023-03-11T13:40:14.110Z,1.30
2023-03-11T13:42:47.564Z,1.43
2023-03-11T13:45:26.835Z,1.50
2023-03-11T13:48:00.104Z,1.50
2023-03-11T13:50:32.009Z,2.17
2023-03-11T13:53:07.905Z,4.10
2023-03-11T13:55:40.286Z,2.10
2023-03-11T13:58:16.708Z,1.47
2023-03-11T14:00:52.774Z,2.70
2023-03-11T14:03:23.761Z,1.87
2023-03-11T14:05:57.861Z,2.20
2023-03-11T14:08:29.987Z,1.60
2023-03-11T14:10:59.772Z,2.20
2023-03-11T14:13:29.713Z,2.30
2023-03-11T14:16:05.285Z,1.73
2023-03-11T14:18:36.864Z,1.57
2023-03-11T14:21:07.973Z,1.90
2023-03-11T14:23:41.366Z,2.00
2023-03-11T14:26:13.989Z,2.10
2023-03-11T14:28:45.550Z,1.70
2023-03-11T14:31:31.245Z,1.57
2023-03-11T14:34:04.449Z,2.03
2023-03-11T14:36:41.508Z,1.90
2023-03-11T14:39:26.142Z,1.70
2023-03-11T14:41:57.995Z,2.23
2023-03-11T14:44:28.783Z,1.83
2023-03-11T14:47:03.588Z,1.50
2023-03-11T14:49:32.198Z,2.10
2023-03-11T14:52:03.736Z,1.77
2023-03-11T14:54:35.473Z,1.70
2023-03-11T14:57:06.758Z,1.80
2023-03-11T14:59:36.193Z,1.93
2023-03-11T15:02:23.600Z,1.60
2023-03-11T15:04:52.841Z,1.50
2023-03-11T15:07:22.137Z,1.73
2023-03-11T15:09:51.772Z,1.60
2023-03-11T15:12:34.118Z,2.27
2023-03-11T15:15:02.399Z,1.73
2023-03-11T15:17:41.316Z,1.87
2023-03-11T15:20:25.773Z,2.10
2023-03-11T15:23:00.968Z,2.27
2023-03-11T15:25:34.220Z,2.30
2023-03-11T15:28:24.261Z,2.10
2023-03-11T15:30:52.606Z,2.20
2023-03-11T15:33:32.521Z,1.70
2023-03-11T15:36:00.712Z,1.60
2023-03-11T15:38:28.948Z,1.60
2023-03-11T15:41:00.995Z,1.77
2023-03-11T15:43:31.873Z,1.87
2023-03-11T15:46:01.895Z,1.90
2023-03-11T15:48:31.275Z,3.30
2023-03-11T15:51:01.552Z,2.27
2023-03-11T15:53:31.299Z,1.77
2023-03-11T15:56:11.542Z,2.07
2023-03-11T15:58:39.948Z,1.90
2023-03-11T16:01:08.488Z,1.57
2023-03-11T16:03:38.926Z,1.67
2023-03-11T16:06:07.581Z,1.77
2023-03-11T16:08:35.821Z,2.00
2023-03-11T16:11:05.432Z,1.73
2023-03-11T16:13:33.725Z,1.80
2023-03-11T16:16:04.514Z,1.83
2023-03-11T16:18:33.770Z,1.57
2023-03-11T16:21:05.080Z,2.10
2023-03-11T16:23:50.517Z,1.37
2023-03-11T16:26:23.551Z,2.53
2023-03-11T16:28:51.656Z,1.80
2023-03-11T16:31:19.888Z,1.83
2023-03-11T16:33:48.060Z,2.30
2023-03-11T16:36:16.249Z,1.40
2023-03-11T16:38:46.458Z,1.80
2023-03-11T16:41:15.144Z,2.17
2023-03-11T16:43:44.686Z,1.93
2023-03-11T16:46:13.083Z,1.37
2023-03-11T16:48:41.302Z,2.13
2023-03-11T16:51:09.662Z,1.40
2023-03-11T16:53:37.791Z,1.43
2023-03-11T16:56:07.269Z,1.80
2023-03-11T16:58:35.371Z,1.57
2023-03-11T17:01:05.150Z,1.43
2023-03-11T17:03:41.920Z,1.23
2023-03-11T17:06:11.015Z,1.80
2023-03-11T17:08:39.150Z,1.80
2023-03-11T17:11:08.368Z,1.80
2023-03-11T17:13:36.462Z,2.20
2023-03-11T17:16:06.769Z,2.20
2023-03-11T17:18:34.913Z,2.50
2023-03-11T17:21:07.341Z,2.07
2023-03-11T17:23:35.532Z,4.90
2023-03-11T17:26:08.198Z,2.10
2023-03-11T17:28:36.721Z,2.67
2023-03-11T17:31:07.265Z,2.27
2023-03-11T17:33:35.481Z,2.50
2023-03-11T17:36:05.031Z,2.40
2023-03-11T17:38:33.519Z,3.00
2023-03-11T17:41:02.069Z,1.90
2023-03-11T17:43:30.426Z,2.80
2023-03-11T17:46:00.004Z,9.47
2023-03-11T17:48:29.705Z,24.67
2023-03-11T17:50:57.958Z,19.50
2023-03-11T17:53:26.273Z,12.40
2023-03-11T17:55:54.431Z,9.33
2023-03-11T17:58:22.572Z,8.73
2023-03-11T18:00:50.702Z,7.40
2023-03-11T18:03:18.797Z,6.20
2023-03-11T18:05:56.817Z,5.53
2023-03-11T18:08:25.043Z,4.60
2023-03-11T18:10:54.703Z,7.60
2023-03-11T18:13:23.225Z,6.60
2023-03-11T18:15:58.323Z,4.83
2023-03-11T18:18:26.630Z,4.47
2023-03-11T18:20:56.127Z,3.70
2023-03-11T18:23:24.337Z,4.50
2023-03-11T18:25:53.381Z,5.00
2023-03-11T18:28:21.550Z,4.37
2023-03-11T18:30:49.682Z,8.57
2023-03-11T18:33:17.878Z,7.60
2023-03-11T18:35:45.990Z,6.53
2023-03-11T18:38:15.823Z,6.00
2023-03-11T18:40:44.273Z,7.07
2023-03-11T18:43:14.159Z,8.27
2023-03-11T18:45:42.404Z,7.93
2023-03-11T18:48:10.541Z,9.63
2023-03-11T18:50:38.745Z,9.90
2023-03-11T18:53:06.885Z,8.87
2023-03-11T18:55:37.012Z,6.60
2023-03-11T18:58:09.357Z,5.97
2023-03-11T19:00:37.838Z,6.57
2023-03-11T19:03:07.257Z,5.80
2023-03-11T19:05:35.420Z,6.33
2023-03-11T19:08:03.633Z,7.07
2023-03-11T19:10:32.293Z,4.87
2023-03-11T19:13:01.865Z,3.30
2023-03-11T19:15:30.019Z,3.13
2023-03-11T19:18:06.626Z,3.67
2023-03-11T19:20:35.656Z,4.37
2023-03-11T19:23:03.852Z,4.53
2023-03-11T19:25:32.266Z,6.10
2023-03-11T19:28:01.872Z,6.27
2023-03-11T19:30:30.298Z,9.10
2023-03-11T19:32:58.595Z,9.13
2023-03-11T19:35:27.179Z,7.13
2023-03-11T19:37:57.363Z,5.50
2023-03-11T19:40:29.786Z,4.30
2023-03-11T19:42:59.234Z,3.50
2023-03-11T19:45:31.203Z,3.60
2023-03-11T19:48:00.030Z,3.37
2023-03-11T19:50:28.209Z,2.70
2023-03-11T19:52:56.463Z,2.37
2023-03-11T19:55:24.891Z,2.60
2023-03-11T19:57:53.231Z,3.43
2023-03-11T20:00:22.216Z,4.10
2023-03-11T20:02:51.793Z,3.03
2023-03-11T20:05:19.951Z,4.40
2023-03-11T20:07:48.064Z,5.73
2023-03-11T20:10:17.593Z,9.93
2023-03-11T20:13:01.247Z,8.70
2023-03-11T20:15:30.343Z,5.73
2023-03-11T20:18:01.123Z,6.33
2023-03-11T20:20:30.030Z,7.53
2023-03-11T20:22:58.469Z,10.20
2023-03-11T20:25:29.523Z,10.30
2023-03-11T20:27:57.782Z,7.93
2023-03-11T20:30:26.402Z,9.37
2023-03-11T20:32:55.395Z,23.43
2023-03-11T20:35:25.112Z,18.10
2023-03-11T20:37:53.447Z,12.43
2023-03-11T20:40:21.912Z,6.50
2023-03-11T20:42:50.185Z,3.23
2023-03-11T20:45:21.898Z,3.50
2023-03-11T20:47:53.557Z,4.27
2023-03-11T20:50:22.098Z,3.80
2023-03-11T20:52:52.090Z,3.80
2023-03-11T20:55:21.870Z,4.57
2023-03-11T20:57:50.072Z,4.90
2023-03-11T21:00:19.113Z,4.27
2023-03-11T21:02:47.763Z,4.67
2023-03-11T21:05:16.192Z,4.83
2023-03-11T21:07:44.929Z,4.23
2023-03-11T21:10:15.230Z,4.67
2023-03-11T21:12:43.688Z,4.17
2023-03-11T21:15:12.964Z,3.87
2023-03-11T21:17:41.276Z,4.93
2023-03-11T21:20:11.255Z,4.27
2023-03-11T21:22:39.497Z,6.40
2023-03-11T21:25:08.846Z,8.13
2023-03-11T21:27:38.482Z,7.60
2023-03-11T21:30:07.815Z,8.20
2023-03-11T21:32:36.211Z,6.07
2023-03-11T21:35:05.412Z,4.83
2023-03-11T21:37:33.824Z,5.80
2023-03-11T21:40:02.069Z,7.30
2023-03-11T21:42:31.191Z,6.13
2023-03-11T21:45:01.147Z,6.40
2023-03-11T21:47:29.276Z,7.17
2023-03-11T21:49:57.740Z,6.23
2023-03-11T21:52:26.515Z,8.10
2023-03-11T21:54:56.215Z,12.00
2023-03-11T21:57:24.549Z,11.70
2023-03-11T21:59:52.786Z,8.93
2023-03-11T22:02:22.370Z,7.50
2023-03-11T22:04:50.890Z,6.67
2023-03-11T22:07:19.322Z,3.70
2023-03-11T22:09:47.701Z,3.77
2023-03-11T22:12:15.954Z,6.03
2023-03-11T22:14:44.323Z,4.60
2023-03-11T22:17:12.544Z,5.30
2023-03-11T22:19:42.408Z,3.17
2023-03-11T22:22:10.673Z,2.57
2023-03-11T22:24:38.834Z,7.30
2023-03-11T22:27:07.368Z,9.90
2023-03-11T22:29:35.531Z,6.27
2023-03-11T22:32:03.835Z,6.83
2023-03-11T22:34:33.761Z,9.00
2023-03-11T22:37:03.350Z,12.67
2023-03-11T22:39:31.713Z,8.83
2023-03-11T22:41:59.833Z,7.90
2023-03-11T22:44:28.131Z,9.10
2023-03-11T22:46:56.298Z,8.60
2023-03-11T22:49:24.822Z,9.17
2023-03-11T22:51:52.962Z,8.97
2023-03-11T22:54:22.515Z,8.70
2023-03-11T22:56:50.756Z,8.13
2023-03-11T22:59:19.037Z,7.23
2023-03-11T23:01:47.460Z,7.10
2023-03-11T23:04:15.553Z,7.50
2023-03-11T23:06:43.816Z,11.60
2023-03-11T23:09:12.256Z,8.30
2023-03-11T23:11:41.898Z,6.00
2023-03-11T23:14:10.033Z,6.93
2023-03-11T23:16:38.222Z,4.77
2023-03-11T23:19:06.337Z,3.87
2023-03-11T23:21:34.762Z,4.67
2023-03-11T23:24:06.074Z,5.40
2023-03-11T23:26:35.298Z,4.00
2023-03-11T23:29:05.778Z,4.70
2023-03-11T23:31:33.908Z,5.43
2023-03-11T23:34:02.090Z,5.20
2023-03-11T23:36:31.273Z,4.70
2023-03-11T23:38:59.407Z,5.40
2023-03-11T23:41:27.952Z,5.20
2023-03-11T23:43:56.352Z,4.00
2023-03-11T23:46:26.059Z,4.00
2023-03-11T23:48:54.410Z,2.90
2023-03-11T23:51:22.592Z,3.83
2023-03-11T23:53:50.756Z,4.00
2023-03-11T23:56:19.956Z,3.53
2023-03-11T23:58:48.252Z,4.63
